createdAt,value
2022-09-15T00:01:40.469Z,99.90
2022-09-15T00:04:08.807Z,99.90
2022-09-15T00:06:37.745Z,99.90
2022-09-15T00:09:08.494Z,99.90
2022-09-15T00:11:37.895Z,99.90
2022-09-15T00:14:08.000Z,99.90
2022-09-15T00:16:36.804Z,99.90
2022-09-15T00:19:06.443Z,99.90
2022-09-15T00:21:38.855Z,99.90
2022-09-15T00:24:08.588Z,99.90
2022-09-15T00:26:39.771Z,99.90
2022-09-15T00:29:10.557Z,99.90
2022-09-15T00:31:40.894Z,99.90
2022-09-15T00:34:13.479Z,99.90
2022-09-15T00:36:42.436Z,99.90
2022-09-15T00:39:10.987Z,99.90
2022-09-15T00:41:40.410Z,99.90
2022-09-15T00:44:22.965Z,99.90
2022-09-15T00:47:17.818Z,99.90
2022-09-15T00:49:46.287Z,99.90
2022-09-15T00:52:39.848Z,99.90
2022-09-15T00:55:21.540Z,99.90
2022-09-15T00:57:56.487Z,99.90
2022-09-15T01:00:28.106Z,99.90
2022-09-15T01:02:57.643Z,99.90
2022-09-15T01:05:42.935Z,99.90
2022-09-15T01:08:26.813Z,99.90
2022-09-15T01:10:56.610Z,99.90
2022-09-15T01:13:25.853Z,99.90
2022-09-15T01:16:31.350Z,99.90
2022-09-15T01:19:22.073Z,99.90
2022-09-15T01:22:12.731Z,99.90
2022-09-15T01:25:00.205Z,99.90
2022-09-15T01:27:41.651Z,99.90
2022-09-15T01:30:16.975Z,99.90
2022-09-15T01:33:15.006Z,99.90
2022-09-15T01:36:14.444Z,99.90
2022-09-15T01:39:11.505Z,99.90
2022-09-15T01:41:45.855Z,99.90
2022-09-15T01:44:24.667Z,99.90
2022-09-15T01:47:00.584Z,99.90
2022-09-15T01:49:50.778Z,99.90
2022-09-15T01:52:24.361Z,99.90
2022-09-15T01:54:56.429Z,99.90
2022-09-15T01:57:25.290Z,99.90
2022-09-15T02:00:05.302Z,99.90
2022-09-15T02:02:47.946Z,99.90
2022-09-15T02:05:40.131Z,99.90
2022-09-15T02:08:11.237Z,99.90
2022-09-15T02:10:48.545Z,99.90
2022-09-15T02:13:29.164Z,99.90
2022-09-15T02:16:00.822Z,99.90
2022-09-15T02:18:47.331Z,99.90
2022-09-15T02:21:31.763Z,99.90
2022-09-15T02:24:12.087Z,99.90
2022-09-15T02:26:43.057Z,99.90
2022-09-15T02:29:15.352Z,99.90
2022-09-15T02:31:45.504Z,99.90
2022-09-15T02:34:18.050Z,99.90
2022-09-15T02:36:48.400Z,99.90
2022-09-15T02:39:19.618Z,99.90
2022-09-15T02:41:51.258Z,99.90
2022-09-15T02:44:19.817Z,99.90
2022-09-15T02:46:48.465Z,99.90
2022-09-15T02:49:17.168Z,99.90
2022-09-15T02:51:46.473Z,99.90
2022-09-15T02:54:18.040Z,99.90
2022-09-15T02:56:47.232Z,99.90
2022-09-15T02:59:15.889Z,99.90
2022-09-15T03:01:45.021Z,99.90
2022-09-15T03:04:16.072Z,99.90
2022-09-15T03:06:44.216Z,99.90
2022-09-15T03:09:13.572Z,99.90
2022-09-15T03:11:45.687Z,99.90
2022-09-15T03:14:17.542Z,99.90
2022-09-15T03:16:45.578Z,99.90
2022-09-15T03:19:14.266Z,99.90
2022-09-15T03:21:42.417Z,99.90
2022-09-15T03:24:11.037Z,99.90
2022-09-15T03:26:39.555Z,99.90
2022-09-15T03:29:07.831Z,99.90
2022-09-15T03:31:36.590Z,99.90
2022-09-15T03:34:05.372Z,99.90
2022-09-15T03:36:36.582Z,99.90
2022-09-15T03:39:07.915Z,99.90
2022-09-15T03:41:35.927Z,99.90
2022-09-15T03:44:04.864Z,99.90
2022-09-15T03:46:33.111Z,99.90
2022-09-15T03:49:04.188Z,99.90
2022-09-15T03:51:33.506Z,99.90
2022-09-15T03:54:01.589Z,99.90
2022-09-15T03:56:32.715Z,99.90
2022-09-15T03:59:05.715Z,99.90
2022-09-15T04:03:15.679Z,99.90
2022-09-15T04:05:43.755Z,99.90
2022-09-15T04:08:13.175Z,99.90
2022-09-15T04:10:42.355Z,99.90
2022-09-15T04:13:11.343Z,99.90
2022-09-15T04:15:40.537Z,99.90
2022-09-15T04:18:08.966Z,99.90
2022-09-15T04:20:39.839Z,99.90
2022-09-15T04:23:08.569Z,99.90
2022-09-15T04:25:36.282Z,99.90
2022-09-15T04:28:04.610Z,99.90
2022-09-15T04:30:33.325Z,99.90
2022-09-15T04:33:01.139Z,99.90
2022-09-15T04:35:29.113Z,99.90
2022-09-15T04:37:56.929Z,99.90
2022-09-15T04:40:25.733Z,99.90
2022-09-15T04:42:54.290Z,99.90
2022-09-15T04:45:22.643Z,99.90
2022-09-15T04:47:51.745Z,99.90
2022-09-15T04:50:20.486Z,99.90
2022-09-15T04:52:49.266Z,99.90
2022-09-15T04:55:17.998Z,99.90
2022-09-15T04:57:46.690Z,99.90
2022-09-15T05:00:15.329Z,99.90
2022-09-15T05:02:45.749Z,99.90
2022-09-15T05:05:14.148Z,99.90
2022-09-15T05:07:42.376Z,99.90
2022-09-15T05:10:10.297Z,99.90
2022-09-15T05:12:38.537Z,99.90
2022-09-15T05:15:07.352Z,99.90
2022-09-15T05:17:36.079Z,99.90
2022-09-15T05:20:05.420Z,99.90
2022-09-15T05:22:33.335Z,99.90
2022-09-15T05:25:01.637Z,99.90
2022-09-15T05:27:33.778Z,99.90
2022-09-15T05:30:35.279Z,99.90
2022-09-15T05:32:51.195Z,99.90
2022-09-15T05:35:19.350Z,99.90
2022-09-15T05:37:47.092Z,99.90
2022-09-15T05:40:15.910Z,99.90
2022-09-15T05:42:43.674Z,99.90
2022-09-15T05:45:11.967Z,99.90
2022-09-15T05:47:40.117Z,99.90
2022-09-15T05:50:08.766Z,99.90
2022-09-15T05:52:37.697Z,99.90
2022-09-15T05:55:06.890Z,99.90
2022-09-15T05:57:35.078Z,99.90
2022-09-15T06:00:04.212Z,99.90
2022-09-15T06:02:40.001Z,99.90
2022-09-15T06:05:08.256Z,99.90
2022-09-15T06:07:36.373Z,99.90
2022-09-15T06:10:05.804Z,99.90
2022-09-15T06:12:33.604Z,99.90
2022-09-15T06:15:02.471Z,99.90
2022-09-15T06:17:34.352Z,99.90
2022-09-15T06:20:07.533Z,99.90
2022-09-15T06:22:36.527Z,99.90
2022-09-15T06:25:06.413Z,99.90
2022-09-15T06:27:34.751Z,99.90
2022-09-15T06:30:03.682Z,99.90
2022-09-15T06:32:31.934Z,99.90
2022-09-15T06:35:00.958Z,99.90
2022-09-15T06:37:30.166Z,99.90
2022-09-15T06:39:58.560Z,99.90
2022-09-15T06:42:27.924Z,99.90
2022-09-15T06:44:56.774Z,99.90
2022-09-15T06:47:25.176Z,99.90
2022-09-15T06:49:54.843Z,99.90
2022-09-15T06:52:23.456Z,99.90
2022-09-15T06:54:51.821Z,99.90
2022-09-15T06:57:19.627Z,99.90
2022-09-15T06:59:50.097Z,99.90
2022-09-15T07:02:18.471Z,99.90
2022-09-15T07:04:46.814Z,99.90
2022-09-15T07:07:15.664Z,99.90
2022-09-15T07:09:46.074Z,99.90
2022-09-15T07:12:17.052Z,99.90
2022-09-15T07:14:45.607Z,99.90
2022-09-15T07:17:13.452Z,99.90
2022-09-15T07:19:43.255Z,99.90
2022-09-15T07:22:12.103Z,99.90
2022-09-15T07:24:40.372Z,99.90
2022-09-15T07:27:08.975Z,99.90
2022-09-15T07:29:38.317Z,99.90
2022-09-15T07:32:06.556Z,99.90
2022-09-15T07:34:34.559Z,99.90
2022-09-15T07:37:03.443Z,99.90
2022-09-15T07:39:33.415Z,99.90
2022-09-15T07:42:01.639Z,99.90
2022-09-15T07:44:29.945Z,99.90
2022-09-15T07:46:57.786Z,99.90
2022-09-15T07:49:25.866Z,99.90
2022-09-15T07:51:53.872Z,99.90
2022-09-15T07:54:23.063Z,99.90
2022-09-15T07:56:51.826Z,99.90
2022-09-15T07:59:20.121Z,99.90
2022-09-15T08:01:48.492Z,99.90
2022-09-15T08:04:16.681Z,99.90
2022-09-15T08:06:45.791Z,99.90
2022-09-15T08:09:17.513Z,99.90
2022-09-15T08:11:45.573Z,99.90
2022-09-15T08:14:14.402Z,99.90
2022-09-15T08:16:42.240Z,99.90
2022-09-15T08:19:11.991Z,99.90
2022-09-15T08:21:41.793Z,99.90
2022-09-15T08:24:10.741Z,99.90
2022-09-15T08:26:43.347Z,99.90
2022-09-15T08:29:20.336Z,99.90
2022-09-15T08:31:49.419Z,99.90
2022-09-15T08:34:18.862Z,99.90
2022-09-15T08:36:46.751Z,99.90
2022-09-15T08:39:15.385Z,99.90
2022-09-15T08:41:44.317Z,99.90
2022-09-15T08:44:18.953Z,99.90
2022-09-15T08:47:05.888Z,99.90
2022-09-15T08:49:51.518Z,99.90
2022-09-15T08:52:41.272Z,99.90
2022-09-15T08:55:31.530Z,99.90
2022-09-15T08:58:03.594Z,99.90
2022-09-15T09:00:33.944Z,99.90
2022-09-15T09:03:16.898Z,99.90
2022-09-15T09:06:11.943Z,99.90
2022-09-15T09:09:00.815Z,99.90
2022-09-15T09:12:06.687Z,99.90
2022-09-15T09:15:05.170Z,99.90
2022-09-15T09:18:01.147Z,99.90
2022-09-15T09:20:43.153Z,99.90
2022-09-15T09:23:15.929Z,99.90
2022-09-15T09:25:45.696Z,99.90
2022-09-15T09:28:47.805Z,99.90
2022-09-15T09:31:20.709Z,99.90
2022-09-15T09:33:59.725Z,99.90
2022-09-15T09:36:28.300Z,99.90
2022-09-15T09:38:57.080Z,99.90
2022-09-15T09:41:35.597Z,99.90
2022-09-15T09:44:10.563Z,99.90
2022-09-15T09:46:38.906Z,99.90
2022-09-15T09:49:23.150Z,99.90
2022-09-15T09:51:56.162Z,99.90
2022-09-15T09:54:28.773Z,99.90
2022-09-15T09:57:17.833Z,99.90
2022-09-15T09:59:49.475Z,99.90
2022-09-15T10:02:26.251Z,99.90
2022-09-15T10:05:12.432Z,99.90
2022-09-15T10:07:44.279Z,99.90
2022-09-15T10:10:23.327Z,99.90
2022-09-15T10:12:56.747Z,99.90
2022-09-15T10:15:28.721Z,99.90
2022-09-15T10:17:57.701Z,99.90
2022-09-15T10:20:32.915Z,99.90
2022-09-15T10:23:14.617Z,99.90
2022-09-15T10:25:58.535Z,99.90
2022-09-15T10:28:28.426Z,99.90
2022-09-15T10:31:11.505Z,99.90
2022-09-15T10:33:47.940Z,99.90
2022-09-15T10:36:28.358Z,99.90
2022-09-15T10:39:02.466Z,99.90
2022-09-15T10:41:37.727Z,99.90
2022-09-15T10:44:38.476Z,99.90
2022-09-15T10:47:16.979Z,99.90
2022-09-15T10:49:52.053Z,99.90
2022-09-15T10:53:00.763Z,99.90
2022-09-15T10:55:53.059Z,99.90
2022-09-15T10:58:35.392Z,99.90
2022-09-15T11:01:16.483Z,99.90
2022-09-15T11:03:53.701Z,99.90
2022-09-15T11:06:50.648Z,99.90
2022-09-15T11:09:35.454Z,99.90
2022-09-15T11:12:29.894Z,99.90
2022-09-15T11:15:33.948Z,99.90
2022-09-15T11:18:42.817Z,99.90
2022-09-15T11:21:33.874Z,99.90
2022-09-15T11:24:17.860Z,99.90
2022-09-15T11:26:53.519Z,99.90
2022-09-15T11:29:50.773Z,99.90
2022-09-15T11:32:29.830Z,99.90
2022-09-15T11:35:29.353Z,99.90
2022-09-15T11:38:37.616Z,99.90
2022-09-15T11:41:31.164Z,99.90
2022-09-15T11:44:18.264Z,99.90
2022-09-15T11:47:18.041Z,99.90
2022-09-15T11:50:11.538Z,99.90
2022-09-15T11:53:03.958Z,99.90
2022-09-15T11:55:44.846Z,99.90
2022-09-15T11:58:54.612Z,99.90
2022-09-15T12:01:51.428Z,99.90
2022-09-15T12:04:28.382Z,99.90
2022-09-15T12:07:02.429Z,99.70
2022-09-15T12:09:31.119Z,99.80
2022-09-15T12:12:16.789Z,99.90
2022-09-15T12:14:47.947Z,99.90
2022-09-15T12:17:43.827Z,99.90
2022-09-15T12:20:39.530Z,99.90
2022-09-15T12:23:29.460Z,99.90
2022-09-15T12:26:23.480Z,99.90
2022-09-15T12:29:04.531Z,99.90
2022-09-15T12:31:40.557Z,99.90
2022-09-15T12:34:38.135Z,99.90
2022-09-15T12:37:13.592Z,99.90
2022-09-15T12:39:43.077Z,99.70
2022-09-15T12:42:18.688Z,99.30
2022-09-15T12:44:56.731Z,99.00
2022-09-15T12:47:39.257Z,98.70
2022-09-15T12:50:16.473Z,97.40
2022-09-15T12:52:59.362Z,96.40
2022-09-15T12:55:35.305Z,95.60
2022-09-15T12:58:16.370Z,94.50
2022-09-15T13:01:13.906Z,93.90
2022-09-15T13:06:14.063Z,93.20
2022-09-15T13:09:05.788Z,92.40
2022-09-15T13:11:37.561Z,91.60
2022-09-15T13:14:13.859Z,91.20
2022-09-15T13:16:46.243Z,91.00
2022-09-15T13:19:20.773Z,90.10
2022-09-15T13:22:12.580Z,89.90
2022-09-15T13:24:49.884Z,89.60
2022-09-15T13:27:28.436Z,88.50
2022-09-15T13:30:15.471Z,87.00
2022-09-15T13:33:13.999Z,84.60
2022-09-15T13:35:51.744Z,83.50
2022-09-15T13:38:30.921Z,82.50
2022-09-15T13:41:32.873Z,81.80
2022-09-15T13:44:41.781Z,81.30
2022-09-15T13:47:25.124Z,80.50
2022-09-15T13:50:19.093Z,78.60
2022-09-15T13:53:00.912Z,77.60
2022-09-15T13:55:34.222Z,77.40
2022-09-15T14:01:02.324Z,77.70
2022-09-15T14:03:43.645Z,78.30
2022-09-15T14:06:25.165Z,79.80
2022-09-15T14:08:59.215Z,80.60
2022-09-15T14:11:36.836Z,80.90
2022-09-15T14:14:10.295Z,81.10
2022-09-15T14:16:39.332Z,80.20
2022-09-15T14:19:31.364Z,79.00
2022-09-15T14:22:18.433Z,76.80
2022-09-15T14:24:47.389Z,74.70
2022-09-15T14:27:25.524Z,71.50
2022-09-15T14:30:29.601Z,67.70
2022-09-15T14:33:01.464Z,67.30
2022-09-15T14:35:38.981Z,66.10
2022-09-15T14:38:26.984Z,65.00
2022-09-15T14:40:59.424Z,64.00
2022-09-15T14:43:38.730Z,63.50
2022-09-15T14:46:15.886Z,63.30
2022-09-15T14:48:45.779Z,63.80
2022-09-15T14:51:24.521Z,64.20
2022-09-15T14:53:58.139Z,64.20
2022-09-15T14:56:33.291Z,63.90
2022-09-15T14:59:09.081Z,64.10
2022-09-15T15:01:51.608Z,64.00
2022-09-15T15:04:40.549Z,64.50
2022-09-15T15:07:25.635Z,64.90
2022-09-15T15:10:18.949Z,65.00
2022-09-15T15:12:58.029Z,65.40
2022-09-15T15:15:31.304Z,66.10
2022-09-15T15:18:06.656Z,66.10
2022-09-15T15:20:35.436Z,66.10
2022-09-15T15:23:27.931Z,66.10
2022-09-15T15:26:28.898Z,66.00
2022-09-15T15:29:01.124Z,66.30
2022-09-15T15:31:33.164Z,66.70
2022-09-15T15:34:07.962Z,66.80
2022-09-15T15:36:37.313Z,66.80
2022-09-15T15:39:08.079Z,67.20
2022-09-15T15:41:41.201Z,67.50
2022-09-15T15:44:15.671Z,68.00
2022-09-15T15:46:49.296Z,68.50
2022-09-15T15:49:22.270Z,68.80
2022-09-15T15:51:51.026Z,69.00
2022-09-15T15:54:19.524Z,69.60
2022-09-15T15:56:47.882Z,70.20
2022-09-15T15:59:20.252Z,70.70
2022-09-15T16:01:54.448Z,71.10
2022-09-15T16:04:25.461Z,72.20
2022-09-15T16:06:54.849Z,72.40
2022-09-15T16:09:23.294Z,72.90
2022-09-15T16:11:54.321Z,73.40
2022-09-15T16:14:23.248Z,74.10
2022-09-15T16:16:51.971Z,75.00
2022-09-15T16:19:20.277Z,76.20
2022-09-15T16:21:58.969Z,77.10
2022-09-15T16:24:28.617Z,77.60
2022-09-15T16:26:56.850Z,77.20
2022-09-15T16:29:29.987Z,77.10
2022-09-15T16:31:58.950Z,77.00
2022-09-15T16:34:28.233Z,77.30
2022-09-15T16:36:56.561Z,77.20
2022-09-15T16:39:25.242Z,77.50
2022-09-15T16:41:55.571Z,77.90
2022-09-15T16:44:24.881Z,77.90
2022-09-15T16:46:53.856Z,77.30
2022-09-15T16:49:22.540Z,77.70
2022-09-15T16:51:56.045Z,78.30
2022-09-15T16:54:25.124Z,77.80
2022-09-15T16:56:55.319Z,77.60
2022-09-15T16:59:24.085Z,77.50
2022-09-15T17:01:54.053Z,77.40
2022-09-15T17:04:22.990Z,77.70
2022-09-15T17:06:51.479Z,77.90
2022-09-15T17:09:21.248Z,78.30
2022-09-15T17:11:49.815Z,79.10
2022-09-15T17:14:18.684Z,79.30
2022-09-15T17:16:52.719Z,79.80
2022-09-15T17:19:20.952Z,80.10
2022-09-15T17:21:50.399Z,80.60
2022-09-15T17:24:20.571Z,81.00
2022-09-15T17:26:50.068Z,81.40
2022-09-15T17:29:18.491Z,81.20
2022-09-15T17:31:49.379Z,80.80
2022-09-15T17:34:17.561Z,79.30
2022-09-15T17:36:45.975Z,79.10
2022-09-15T17:39:16.314Z,77.50
2022-09-15T17:41:47.258Z,77.90
2022-09-15T17:44:21.426Z,78.10
2022-09-15T17:46:49.927Z,78.00
2022-09-15T17:49:18.646Z,78.60
2022-09-15T17:51:47.533Z,78.80
2022-09-15T17:54:16.513Z,79.20
2022-09-15T17:56:47.213Z,79.60
2022-09-15T17:59:19.512Z,79.90
2022-09-15T18:01:52.578Z,79.80
2022-09-15T18:04:21.636Z,80.10
2022-09-15T18:06:50.135Z,80.30
2022-09-15T18:09:19.379Z,80.20
2022-09-15T18:11:48.137Z,80.70
2022-09-15T18:14:16.518Z,81.20
2022-09-15T18:16:46.274Z,81.80
2022-09-15T18:19:14.259Z,82.10
2022-09-15T18:21:43.058Z,82.50
2022-09-15T18:24:15.063Z,83.00
2022-09-15T18:26:43.924Z,84.00
2022-09-15T18:29:13.065Z,84.50
2022-09-15T18:31:41.662Z,84.50
2022-09-15T18:34:10.453Z,84.50
2022-09-15T18:36:40.529Z,84.40
2022-09-15T18:39:12.054Z,84.50
2022-09-15T18:41:40.543Z,84.30
2022-09-15T18:44:11.032Z,84.40
2022-09-15T18:46:39.469Z,85.10
2022-09-15T18:49:09.468Z,86.30
2022-09-15T18:56:16.880Z,86.60
2022-09-15T18:58:45.716Z,86.80
2022-09-15T19:01:16.200Z,86.90
2022-09-15T19:03:47.618Z,86.60
2022-09-15T19:06:20.935Z,86.10
2022-09-15T19:08:53.444Z,86.20
2022-09-15T19:11:23.944Z,85.90
2022-09-15T19:13:55.223Z,85.50
2022-09-15T19:16:46.864Z,85.60
2022-09-15T19:19:15.272Z,85.90
2022-09-15T19:21:44.818Z,86.60
2022-09-15T19:24:16.301Z,86.60
2022-09-15T19:26:47.368Z,87.10
2022-09-15T19:29:17.939Z,87.50
2022-09-15T19:31:47.186Z,87.10
2022-09-15T19:34:16.615Z,86.30
2022-09-15T19:36:46.443Z,86.40
2022-09-15T19:39:20.164Z,86.80
2022-09-15T19:41:56.840Z,87.20
2022-09-15T19:44:27.993Z,88.20
2022-09-15T19:46:56.582Z,89.20
2022-09-15T19:49:26.116Z,89.60
2022-09-15T19:51:57.446Z,89.20
2022-09-15T19:54:31.749Z,89.20
2022-09-15T19:57:03.953Z,89.70
2022-09-15T19:59:32.218Z,90.00
2022-09-15T20:02:05.792Z,88.30
2022-09-15T20:07:23.441Z,87.90
2022-09-15T20:09:54.177Z,89.10
2022-09-15T20:12:25.650Z,89.70
2022-09-15T20:14:54.594Z,90.00
2022-09-15T20:17:26.487Z,90.50
2022-09-15T20:19:58.144Z,90.20
2022-09-15T20:22:27.184Z,90.10
2022-09-15T20:25:07.357Z,90.00
2022-09-15T20:27:36.433Z,90.10
2022-09-15T20:30:09.243Z,90.00
2022-09-15T20:32:37.952Z,89.10
2022-09-15T20:35:09.372Z,89.60
2022-09-15T20:37:38.660Z,90.40
2022-09-15T20:40:11.759Z,90.50
2022-09-15T20:42:47.958Z,90.50
2022-09-15T20:45:24.450Z,90.20
2022-09-15T20:47:55.759Z,90.40
2022-09-15T20:50:24.348Z,90.50
2022-09-15T20:52:52.489Z,90.80
2022-09-15T20:55:20.955Z,91.00
2022-09-15T20:57:49.712Z,90.90
2022-09-15T21:00:18.902Z,90.80
2022-09-15T21:02:51.781Z,90.70
2022-09-15T21:05:22.692Z,90.80
2022-09-15T21:07:52.114Z,91.00
2022-09-15T21:10:20.735Z,91.00
2022-09-15T21:12:48.823Z,91.00
2022-09-15T21:15:17.260Z,91.10
2022-09-15T21:17:45.813Z,91.20
2022-09-15T21:20:14.487Z,91.30
2022-09-15T21:22:45.126Z,91.40
2022-09-15T21:25:13.657Z,91.70
2022-09-15T21:27:43.529Z,91.60
2022-09-15T21:30:16.745Z,91.70
2022-09-15T21:32:47.730Z,92.30
2022-09-15T21:35:16.733Z,92.80
2022-09-15T21:37:45.558Z,92.50
2022-09-15T21:40:16.975Z,91.80
2022-09-15T21:42:47.878Z,91.40
2022-09-15T21:45:18.401Z,91.60
2022-09-15T21:47:46.397Z,91.90
2022-09-15T21:50:15.745Z,91.70
2022-09-15T21:52:46.896Z,92.00
2022-09-15T21:55:15.979Z,92.10
2022-09-15T21:57:44.134Z,92.00
2022-09-15T22:00:16.661Z,91.90
2022-09-15T22:02:47.568Z,91.60
2022-09-15T22:07:33.538Z,90.70
2022-09-15T22:10:01.615Z,90.70
2022-09-15T22:12:30.048Z,89.80
2022-09-15T22:14:57.821Z,88.70
2022-09-15T22:17:25.804Z,87.70
2022-09-15T22:19:53.608Z,86.70
2022-09-15T22:22:22.335Z,86.00
2022-09-15T22:24:50.842Z,85.40
2022-09-15T22:27:18.624Z,85.30
2022-09-15T22:29:46.458Z,86.20
2022-09-15T22:32:15.009Z,86.80
2022-09-15T22:34:43.405Z,87.20
2022-09-15T22:37:11.165Z,88.10
2022-09-15T22:39:58.130Z,89.10
2022-09-15T22:42:30.343Z,89.80
2022-09-15T22:44:59.391Z,90.00
2022-09-15T22:47:29.671Z,90.00
2022-09-15T22:49:58.038Z,90.30
2022-09-15T22:52:31.043Z,91.30
2022-09-15T22:54:58.837Z,92.40
2022-09-15T22:57:27.189Z,93.10
2022-09-15T22:59:55.660Z,93.20
2022-09-15T23:02:24.888Z,93.60
2022-09-15T23:04:54.324Z,94.10
2022-09-15T23:07:23.013Z,94.30
2022-09-15T23:09:51.120Z,94.10
2022-09-15T23:12:19.865Z,94.50
2022-09-15T23:14:47.826Z,95.70
2022-09-15T23:17:16.046Z,96.80
2022-09-15T23:19:44.566Z,97.40
2022-09-15T23:22:12.726Z,98.30
2022-09-15T23:24:41.107Z,98.70
2022-09-15T23:27:08.887Z,99.00
2022-09-15T23:29:37.243Z,99.70
2022-09-15T23:32:06.343Z,99.60
2022-09-15T23:34:34.618Z,99.90
2022-09-15T23:37:03.114Z,99.90
2022-09-15T23:39:31.812Z,99.90
2022-09-15T23:42:00.666Z,99.90
2022-09-15T23:44:29.063Z,99.90
2022-09-15T23:46:57.442Z,99.90
2022-09-15T23:49:26.607Z,99.90
2022-09-15T23:51:55.128Z,99.90
2022-09-15T23:54:23.405Z,99.90
2022-09-15T23:56:51.114Z,99.90
2022-09-15T23:59:19.299Z,99.90
